Time;durP1;ratioP1;P1;durP2;ratioP2;P2;SDS_P1;SDS_P2;PMS_P1;PMS_P2;Temp;Humidity;BMP_temperature;BMP_pressure;BME280_temperature;BME280_humidity;BME280_pressure;Samples;Min_cycle;Max_cycle;Signal;HPM_P1;HPM_P2
2021/06/13 00:01:34;;;;;;;13.68;6.30;;;13.30;78.50;;;;;;5051103;28;20083;-82
2021/06/13 00:03:59;;;;;;;20.75;7.55;;;13.30;78.50;;;;;;5051733;28;20025;-83
2021/06/13 00:06:25;;;;;;;15.43;6.45;;;13.20;78.70;;;;;;5051061;28;20465;-83
2021/06/13 00:08:51;;;;;;;14.85;5.82;;;13.20;78.80;;;;;;5034221;28;20043;-84
2021/06/13 00:11:17;;;;;;;20.00;6.68;;;13.20;78.90;;;;;;5052002;28;20065;-83
2021/06/13 00:13:43;;;;;;;19.52;6.53;;;13.20;79.00;;;;;;5052196;28;20029;-83
2021/06/13 00:16:10;;;;;;;19.63;6.07;;;13.20;79.20;;;;;;5034695;28;20094;-82
2021/06/13 00:18:36;;;;;;;17.17;6.90;;;13.20;79.30;;;;;;5052737;28;20039;-82
2021/06/13 00:21:02;;;;;;;19.17;6.68;;;13.20;79.80;;;;;;5035485;28;20495;-82
2021/06/13 00:23:28;;;;;;;15.68;6.45;;;13.20;79.70;;;;;;5034516;28;20025;-82
2021/06/13 00:25:54;;;;;;;14.75;6.90;;;13.20;79.60;;;;;;5051100;28;20029;-82
2021/06/13 00:28:20;;;;;;;17.67;7.90;;;13.20;79.70;;;;;;5036954;28;20053;-83
2021/06/13 00:30:46;;;;;;;19.25;8.30;;;13.20;79.80;;;;;;5031631;28;20120;-82
2021/06/13 00:33:12;;;;;;;20.08;7.50;;;13.10;79.90;;;;;;5031346;28;20381;-83
2021/06/13 00:35:37;;;;;;;16.17;7.38;;;13.10;80.20;;;;;;5014297;28;20478;-83
2021/06/13 00:38:06;;;;;;;17.35;8.20;;;13.10;80.80;;;;;;5030912;28;20810;-82
2021/06/13 00:40:32;;;;;;;18.48;8.05;;;13.00;80.90;;;;;;5032988;28;20032;-81
2021/06/13 00:42:58;;;;;;;21.45;7.45;;;13.00;81.30;;;;;;5035571;28;20049;-81
2021/06/13 00:45:25;;;;;;;18.05;7.65;;;12.90;81.90;;;;;;5034667;28;20026;-81
2021/06/13 00:47:50;;;;;;;19.05;7.78;;;12.90;81.80;;;;;;5034226;28;20043;-81
2021/06/13 00:50:33;;;;;;;17.95;8.27;;;12.80;81.90;;;;;;5017681;28;20029;-81
2021/06/13 00:53:00;;;;;;;16.42;6.93;;;12.80;82.00;;;;;;5035979;28;20061;-81
2021/06/13 00:55:27;;;;;;;17.33;8.45;;;12.70;82.00;;;;;;5035851;28;20654;-82
2021/06/13 00:57:53;;;;;;;18.25;7.90;;;12.70;82.00;;;;;;5034648;28;20469;-82
2021/06/13 01:00:20;;;;;;;20.37;8.83;;;12.80;82.20;;;;;;5036914;28;20101;-82
2021/06/13 01:02:46;;;;;;;18.60;8.32;;;12.70;82.40;;;;;;5017544;28;20148;-82
2021/06/13 01:05:12;;;;;;;21.67;8.32;;;12.70;82.40;;;;;;5034117;28;20565;-81
2021/06/13 01:07:48;;;;;;;18.13;8.47;;;12.70;82.60;;;;;;5017188;28;20051;-82
2021/06/13 01:10:34;;;;;;;19.70;9.80;;;12.60;83.00;;;;;;5034059;28;20072;-82
2021/06/13 01:13:25;;;;;;;18.17;8.40;;;12.60;83.10;;;;;;5034447;28;20025;-82
2021/06/13 01:16:10;;;;;;;24.95;8.65;;;12.50;83.10;;;;;;5031334;28;20359;-82
2021/06/13 01:19:02;;;;;;;26.67;9.23;;;12.50;83.30;;;;;;5048300;28;20037;-83
2021/06/13 01:21:54;;;;;;;19.10;8.43;;;12.50;83.60;;;;;;5054171;28;20024;-83
2021/06/13 01:25:00;;;;;;;21.63;8.87;;;12.50;83.70;;;;;;5054016;28;20017;-84
2021/06/13 01:27:53;;;;;;;18.07;8.77;;;12.40;84.10;;;;;;5055016;28;20025;-81
2021/06/13 01:30:20;;;;;;;17.55;8.73;;;12.40;84.30;;;;;;5054460;28;20167;-81
2021/06/13 01:32:46;;;;;;;20.73;9.00;;;12.40;84.20;;;;;;5033471;28;20552;-81
2021/06/13 01:35:15;;;;;;;23.80;8.37;;;12.30;84.20;;;;;;5017265;28;20124;-81
2021/06/13 01:37:48;;;;;;;18.87;8.50;;;12.40;84.40;;;;;;5032855;28;20025;-81
2021/06/13 01:40:15;;;;;;;25.97;8.10;;;12.40;84.70;;;;;;5033678;28;20366;-82
2021/06/13 01:42:45;;;;;;;18.70;8.47;;;12.40;84.80;;;;;;5034663;28;20251;-81
2021/06/13 01:45:19;;;;;;;20.60;8.40;;;12.30;84.90;;;;;;5033899;28;20462;-82
2021/06/13 01:47:46;;;;;;;15.77;8.82;;;12.40;85.20;;;;;;5034502;28;20033;-82
2021/06/13 01:50:12;;;;;;;16.83;8.35;;;12.40;85.30;;;;;;5033629;28;20065;-83
2021/06/13 01:52:38;;;;;;;16.70;8.10;;;12.40;85.40;;;;;;5033608;28;20029;-84
2021/06/13 01:55:07;;;;;;;19.03;8.63;;;12.40;85.80;;;;;;5034725;28;20091;-83
2021/06/13 01:57:33;;;;;;;23.27;9.23;;;12.40;85.90;;;;;;5033525;28;20116;-82
2021/06/13 02:00:00;;;;;;;19.40;8.03;;;12.30;86.10;;;;;;5016906;28;20461;-83
2021/06/13 02:02:28;;;;;;;18.67;9.35;;;12.30;86.30;;;;;;5017179;28;20025;-82
2021/06/13 02:04:54;;;;;;;19.70;8.93;;;12.30;86.50;;;;;;5045234;28;20109;-83
2021/06/13 02:07:22;;;;;;;23.63;9.03;;;12.30;86.60;;;;;;5054288;28;20033;-83
2021/06/13 02:09:49;;;;;;;17.27;8.60;;;12.30;86.80;;;;;;5053297;28;20032;-83
2021/06/13 02:12:15;;;;;;;20.53;10.20;;;12.30;87.00;;;;;;5036238;28;20021;-83
2021/06/13 02:14:44;;;;;;;18.40;8.10;;;12.30;87.30;;;;;;5036636;28;20040;-83
2021/06/13 02:17:13;;;;;;;18.23;8.53;;;12.30;87.50;;;;;;5036643;28;20029;-83
2021/06/13 02:19:42;;;;;;;21.03;8.83;;;12.30;87.50;;;;;;5052877;28;20033;-83
2021/06/13 02:22:13;;;;;;;28.83;9.27;;;12.30;87.70;;;;;;5039488;28;20033;-83
2021/06/13 02:24:42;;;;;;;21.80;8.93;;;12.20;87.70;;;;;;5033966;28;20021;-82
2021/06/13 02:27:08;;;;;;;17.90;8.27;;;12.20;87.70;;;;;;5016377;28;20154;-81
2021/06/13 02:29:36;;;;;;;18.77;8.63;;;12.20;87.80;;;;;;5016636;28;20053;-81
2021/06/13 02:32:03;;;;;;;16.97;7.63;;;12.20;88.00;;;;;;5032816;28;20461;-81
2021/06/13 02:34:30;;;;;;;16.50;8.40;;;12.20;88.00;;;;;;5032857;28;20030;-80
2021/06/13 02:37:00;;;;;;;21.03;8.67;;;12.20;88.00;;;;;;5033569;28;20025;-80
2021/06/13 02:39:25;;;;;;;22.67;9.17;;;12.20;88.20;;;;;;5033825;28;20033;-80
2021/06/13 02:41:52;;;;;;;21.10;8.20;;;12.20;88.40;;;;;;5052065;28;20572;-80
2021/06/13 02:44:19;;;;;;;17.03;7.70;;;12.10;88.40;;;;;;5052289;28;20032;-80
2021/06/13 02:46:48;;;;;;;19.17;7.77;;;12.20;88.50;;;;;;5052257;28;20028;-80
2021/06/13 02:49:13;;;;;;;21.57;9.07;;;12.10;88.50;;;;;;5052211;28;20421;-79
2021/06/13 02:51:58;;;;;;;17.25;8.38;;;12.20;88.60;;;;;;5035359;28;20025;-81
2021/06/13 02:54:26;;;;;;;21.23;8.27;;;12.10;88.60;;;;;;5049969;28;20021;-80
2021/06/13 02:56:57;;;;;;;17.70;7.97;;;12.10;88.70;;;;;;5015621;28;20120;-80
2021/06/13 02:59:41;;;;;;;23.20;9.13;;;12.10;88.80;;;;;;5040189;28;20099;-80
2021/06/13 03:02:13;;;;;;;17.52;7.97;;;12.10;89.00;;;;;;5052714;28;20079;-80
2021/06/13 03:04:42;;;;;;;20.33;8.00;;;12.10;89.10;;;;;;5052757;28;20064;-79
2021/06/13 03:07:10;;;;;;;21.07;8.40;;;12.10;89.80;;;;;;5035258;28;20435;-79
2021/06/13 03:09:39;;;;;;;24.70;9.40;;;12.10;89.30;;;;;;5052356;28;20039;-79
2021/06/13 03:12:05;;;;;;;21.13;8.85;;;12.10;89.40;;;;;;5050492;28;20393;-80
2021/06/13 03:14:33;;;;;;;19.37;7.30;;;12.10;89.50;;;;;;5031597;28;20041;-81
2021/06/13 03:16:59;;;;;;;19.97;9.53;;;12.00;89.50;;;;;;5033103;28;20473;-81
2021/06/13 03:19:27;;;;;;;22.13;10.20;;;12.00;89.60;;;;;;5032293;28;20029;-80
2021/06/13 03:21:53;;;;;;;20.10;9.00;;;12.00;89.70;;;;;;5000329;28;20120;-82
2021/06/13 03:24:22;;;;;;;22.70;9.27;;;12.00;89.80;;;;;;5016450;28;20056;-81
2021/06/13 03:26:49;;;;;;;18.57;8.33;;;12.00;89.90;;;;;;5032080;28;20029;-81
2021/06/13 03:29:16;;;;;;;19.83;8.18;;;12.00;89.90;;;;;;5041084;28;20040;-81
2021/06/13 03:31:42;;;;;;;17.20;8.10;;;12.00;89.90;;;;;;5051537;28;20029;-81
2021/06/13 03:34:09;;;;;;;20.50;9.57;;;12.10;89.90;;;;;;5051243;28;20448;-80
2021/06/13 03:36:36;;;;;;;17.80;7.97;;;12.10;89.80;;;;;;5051111;28;20040;-80
2021/06/13 03:39:02;;;;;;;20.27;8.07;;;12.00;89.80;;;;;;5051011;28;20083;-82
2021/06/13 03:41:28;;;;;;;19.90;8.37;;;12.00;89.80;;;;;;5050777;28;20075;-83
2021/06/13 03:43:55;;;;;;;20.57;9.07;;;12.10;89.80;;;;;;5050721;28;20037;-81
2021/06/13 03:46:22;;;;;;;21.15;7.90;;;12.00;89.80;;;;;;5050519;28;20033;-82
2021/06/13 03:48:49;;;;;;;19.50;9.03;;;12.00;89.80;;;;;;5031016;28;20033;-82
2021/06/13 03:51:16;;;;;;;17.43;8.17;;;12.00;89.80;;;;;;5032188;28;20029;-83
2021/06/13 03:53:47;;;;;;;15.30;8.40;;;12.00;89.80;;;;;;5014482;28;20469;-83
2021/06/13 03:56:19;;;;;;;17.67;8.27;;;12.00;89.80;;;;;;5032646;28;20032;-84
2021/06/13 03:58:45;;;;;;;18.17;8.53;;;12.00;89.80;;;;;;5031113;28;20026;-83
2021/06/13 04:01:12;;;;;;;23.33;8.90;;;12.00;89.80;;;;;;5038268;28;20443;-81
2021/06/13 04:03:41;;;;;;;19.47;9.43;;;12.00;89.80;;;;;;5051486;28;20056;-84
2021/06/13 04:06:08;;;;;;;27.37;8.43;;;11.90;89.80;;;;;;5048519;28;20037;-81
2021/06/13 04:08:37;;;;;;;16.90;8.30;;;12.00;89.90;;;;;;5033089;28;20481;-83
2021/06/13 04:11:04;;;;;;;17.87;8.63;;;12.00;90.00;;;;;;5053211;28;20449;-83
2021/06/13 04:13:30;;;;;;;19.43;8.50;;;12.00;90.00;;;;;;5050994;28;20025;-82
2021/06/13 04:15:57;;;;;;;17.93;9.43;;;12.10;90.00;;;;;;5053201;28;20040;-82
2021/06/13 04:18:23;;;;;;;18.37;9.30;;;12.10;90.00;;;;;;5055721;28;20037;-81
2021/06/13 04:20:52;;;;;;;14.93;7.57;;;12.10;90.00;;;;;;5036556;28;20143;-81
2021/06/13 04:23:18;;;;;;;18.07;8.53;;;12.10;90.00;;;;;;5053736;28;20037;-81
2021/06/13 04:25:44;;;;;;;19.17;8.83;;;12.20;90.10;;;;;;5054494;28;20029;-81
2021/06/13 04:28:17;;;;;;;15.90;8.15;;;12.20;90.10;;;;;;5055880;28;20041;-82
2021/06/13 04:31:01;;;;;;;29.87;8.93;;;12.20;90.10;;;;;;5055076;28;20021;-82
2021/06/13 04:33:29;;;;;;;16.42;7.45;;;12.20;90.10;;;;;;5056202;28;20079;-81
2021/06/13 04:35:54;;;;;;;20.57;7.47;;;12.30;90.10;;;;;;5052494;28;20024;-80
2021/06/13 04:38:20;;;;;;;19.47;8.27;;;12.30;90.10;;;;;;5046041;28;20048;-81
2021/06/13 04:40:46;;;;;;;18.73;8.10;;;12.40;90.10;;;;;;5034750;28;20034;-81
2021/06/13 04:43:11;;;;;;;15.32;7.63;;;12.30;90.10;;;;;;5017233;28;20355;-81
2021/06/13 04:45:37;;;;;;;20.58;8.88;;;12.40;90.10;;;;;;5034438;28;20042;-82
2021/06/13 04:48:06;;;;;;;21.17;7.80;;;12.40;90.10;;;;;;5034423;28;20052;-83
2021/06/13 04:50:34;;;;;;;13.73;7.65;;;12.40;90.10;;;;;;5018669;28;20022;-85
2021/06/13 04:53:02;;;;;;;16.17;7.53;;;12.50;90.10;;;;;;5051529;28;20022;-83
2021/06/13 04:55:44;;;;;;;14.60;7.50;;;12.50;90.10;;;;;;5034663;28;20033;-81
2021/06/13 04:58:22;;;;;;;24.73;8.85;;;12.50;90.20;;;;;;5017960;28;20405;-81
2021/06/13 05:00:48;;;;;;;16.85;7.13;;;12.50;90.20;;;;;;5019304;28;20056;-81
2021/06/13 05:03:13;;;;;;;20.83;8.55;;;12.60;90.20;;;;;;5034663;28;20105;-81
2021/06/13 05:05:39;;;;;;;15.77;7.63;;;12.60;90.20;;;;;;5017617;28;20025;-81
2021/06/13 05:08:05;;;;;;;21.58;8.40;;;12.60;90.20;;;;;;5034020;28;20073;-81
2021/06/13 05:10:31;;;;;;;17.77;7.70;;;12.70;90.20;;;;;;5035135;28;20025;-81
2021/06/13 05:12:57;;;;;;;17.38;8.63;;;12.60;90.20;;;;;;5016846;28;20029;-82
2021/06/13 05:15:24;;;;;;;19.27;7.85;;;12.60;90.20;;;;;;5033975;28;20401;-82
2021/06/13 05:17:50;;;;;;;16.67;6.97;;;12.70;90.30;;;;;;5034188;28;20075;-83
2021/06/13 05:20:16;;;;;;;20.83;7.25;;;12.70;90.30;;;;;;5017584;28;20116;-82
2021/06/13 05:23:08;;;;;;;21.58;7.93;;;12.80;90.30;;;;;;5017244;28;20029;-82
2021/06/13 05:25:37;;;;;;;21.77;7.60;;;12.80;90.30;;;;;;5014162;28;20037;-82
2021/06/13 05:28:05;;;;;;;16.50;6.90;;;12.80;90.20;;;;;;5025631;28;20446;-82
2021/06/13 05:30:32;;;;;;;16.67;6.93;;;12.90;90.20;;;;;;5033505;28;20057;-82
2021/06/13 05:32:58;;;;;;;17.75;6.68;;;12.90;90.20;;;;;;5033153;28;20083;-82
2021/06/13 05:35:24;;;;;;;17.15;6.82;;;12.90;90.10;;;;;;5032815;28;20429;-82
2021/06/13 05:37:50;;;;;;;20.85;6.43;;;12.90;90.10;;;;;;5016809;28;20030;-81
2021/06/13 05:40:18;;;;;;;20.23;7.15;;;13.00;90.10;;;;;;5035664;28;20384;-82
2021/06/13 05:42:44;;;;;;;17.85;7.40;;;13.00;90.10;;;;;;5052853;28;20095;-82
2021/06/13 05:45:12;;;;;;;19.80;7.25;;;13.10;90.10;;;;;;5043894;28;20026;-83
2021/06/13 05:47:39;;;;;;;18.85;6.88;;;13.10;90.10;;;;;;5033127;28;20039;-84
2021/06/13 05:50:07;;;;;;;17.42;7.20;;;13.10;90.10;;;;;;5017319;28;20033;-83
2021/06/13 05:52:33;;;;;;;19.45;6.88;;;13.20;90.10;;;;;;5034553;28;20081;-81
2021/06/13 05:54:59;;;;;;;15.88;5.32;;;13.20;90.10;;;;;;5033301;28;20036;-80
2021/06/13 05:57:32;;;;;;;25.48;6.60;;;13.30;90.10;;;;;;5017137;28;20041;-81
2021/06/13 06:00:20;;;;;;;14.98;5.88;;;13.40;90.10;;;;;;5033502;28;20071;-81
2021/06/13 06:02:47;;;;;;;19.95;6.63;;;13.40;90.10;;;;;;5052059;28;20036;-82
2021/06/13 06:05:14;;;;;;;15.45;5.95;;;13.40;90.00;;;;;;5036909;28;20056;-83
2021/06/13 06:07:40;;;;;;;14.35;5.95;;;13.50;89.90;;;;;;5052700;28;20087;-84
2021/06/13 06:10:07;;;;;;;16.08;5.40;;;13.60;89.80;;;;;;5054372;28;21031;-83
2021/06/13 06:12:34;;;;;;;14.90;5.68;;;13.60;90.00;;;;;;5052739;28;20086;-82
2021/06/13 06:15:00;;;;;;;16.02;5.68;;;13.60;89.40;;;;;;5037178;28;20036;-82
2021/06/13 06:17:26;;;;;;;13.80;5.05;;;13.70;89.30;;;;;;5036022;28;20040;-83
2021/06/13 06:19:51;;;;;;;14.82;4.57;;;13.80;89.20;;;;;;5051581;28;20033;-84
2021/06/13 06:22:17;;;;;;;19.05;5.70;;;13.80;88.90;;;;;;5052326;28;20082;-84
2021/06/13 06:24:43;;;;;;;13.27;5.05;;;13.90;88.70;;;;;;5053873;28;20076;-81
2021/06/13 06:27:09;;;;;;;10.95;4.72;;;13.90;88.50;;;;;;5036460;28;20040;-81
2021/06/13 06:29:34;;;;;;;11.35;4.47;;;14.00;88.40;;;;;;5053344;28;20473;-80
2021/06/13 06:32:00;;;;;;;15.45;4.45;;;14.00;88.20;;;;;;5036193;28;20098;-81
2021/06/13 06:34:26;;;;;;;13.25;4.18;;;14.10;88.00;;;;;;5036132;28;20025;-82
2021/06/13 06:36:52;;;;;;;18.38;5.50;;;14.10;87.60;;;;;;5051440;28;20060;-84
2021/06/13 06:39:18;;;;;;;18.52;4.57;;;14.20;87.10;;;;;;5051706;28;20159;-83
2021/06/13 06:41:44;;;;;;;15.30;4.80;;;14.20;86.40;;;;;;5052816;28;20138;-82
2021/06/13 06:44:10;;;;;;;9.82;4.43;;;14.30;86.10;;;;;;5052341;28;20059;-83
2021/06/13 06:46:37;;;;;;;12.50;3.88;;;14.40;85.80;;;;;;5036060;28;20040;-82
2021/06/13 06:49:04;;;;;;;13.68;5.57;;;14.40;85.40;;;;;;5052471;28;20033;-82
2021/06/13 06:51:30;;;;;;;11.93;4.25;;;14.40;84.90;;;;;;5051805;28;20111;-82
2021/06/13 06:53:57;;;;;;;12.82;4.32;;;14.50;84.80;;;;;;5035229;28;20059;-82
2021/06/13 06:56:27;;;;;;;11.60;4.20;;;14.50;84.40;;;;;;5052717;28;20029;-82
2021/06/13 06:58:54;;;;;;;11.68;4.15;;;14.50;84.40;;;;;;5036420;28;20090;-82
2021/06/13 07:01:20;;;;;;;10.60;3.95;;;14.60;84.30;;;;;;5035850;28;20067;-83
2021/06/13 07:03:46;;;;;;;15.07;4.82;;;14.60;84.10;;;;;;5052824;28;20075;-86
2021/06/13 07:06:12;;;;;;;9.73;3.88;;;14.70;83.80;;;;;;5051464;28;20067;-84
2021/06/13 07:08:38;;;;;;;12.30;4.88;;;14.70;83.70;;;;;;5034123;28;20049;-84
2021/06/13 07:11:03;;;;;;;12.45;4.55;;;14.80;83.60;;;;;;5051616;28;20048;-80
2021/06/13 07:13:29;;;;;;;12.88;4.40;;;14.80;83.60;;;;;;5044333;28;20040;-81
2021/06/13 07:15:55;;;;;;;10.18;4.13;;;14.90;83.20;;;;;;5042369;28;20028;-81
2021/06/13 07:18:21;;;;;;;10.15;3.50;;;14.90;83.00;;;;;;5047513;28;20409;-78
2021/06/13 07:20:46;;;;;;;11.45;3.88;;;15.00;82.70;;;;;;5040128;28;20037;-81
2021/06/13 07:23:12;;;;;;;13.70;3.75;;;15.10;82.60;;;;;;5051529;28;20029;-81
2021/06/13 07:25:38;;;;;;;7.95;2.78;;;15.10;82.20;;;;;;5046789;28;20464;-81
2021/06/13 07:28:05;;;;;;;13.85;3.40;;;15.20;82.00;;;;;;5031902;28;20029;-82
2021/06/13 07:30:31;;;;;;;13.40;4.85;;;15.30;81.30;;;;;;5039929;28;20048;-81
2021/06/13 07:33:00;;;;;;;11.25;3.75;;;15.30;80.70;;;;;;5020000;28;20035;-81
2021/06/13 07:35:26;;;;;;;8.90;3.47;;;15.40;80.50;;;;;;5032189;28;20377;-82
2021/06/13 07:37:51;;;;;;;13.18;3.40;;;15.40;80.10;;;;;;5042156;28;20029;-81
2021/06/13 07:40:19;;;;;;;9.10;3.22;;;15.50;79.60;;;;;;5042381;28;20033;-81
2021/06/13 07:42:45;;;;;;;8.25;3.50;;;15.50;79.30;;;;;;5048283;28;20098;-81
2021/06/13 07:45:12;;;;;;;12.60;3.60;;;15.60;78.90;;;;;;5031838;28;20490;-80
2021/06/13 07:47:39;;;;;;;8.98;3.05;;;15.70;78.50;;;;;;5031727;28;20128;-81
2021/06/13 07:50:06;;;;;;;9.10;3.10;;;15.80;78.20;;;;;;5038093;28;20029;-81
2021/06/13 07:52:32;;;;;;;10.98;3.35;;;15.90;77.70;;;;;;5039895;28;20033;-81
2021/06/13 07:55:07;;;;;;;11.15;3.58;;;16.00;77.20;;;;;;5038116;28;20026;-81
2021/06/13 07:57:33;;;;;;;12.23;3.78;;;16.00;76.50;;;;;;5039285;28;20028;-80
2021/06/13 07:59:59;;;;;;;13.00;3.30;;;16.10;76.00;;;;;;5048822;28;20029;-81
2021/06/13 08:02:24;;;;;;;12.23;4.63;;;16.20;75.50;;;;;;5054735;28;20543;-80
2021/06/13 08:04:56;;;;;;;9.20;3.35;;;16.20;75.50;;;;;;5060169;28;20037;-81
2021/06/13 08:07:22;;;;;;;11.13;3.33;;;16.30;75.50;;;;;;5057791;28;20041;-82
2021/06/13 08:09:48;;;;;;;8.57;3.25;;;16.40;76.10;;;;;;5058865;28;20025;-82
2021/06/13 08:12:23;;;;;;;12.77;3.67;;;16.50;75.40;;;;;;5059393;28;20029;-82
2021/06/13 08:14:49;;;;;;;10.25;3.13;;;16.60;75.30;;;;;;5042468;28;20052;-83
2021/06/13 08:17:14;;;;;;;9.35;2.97;;;16.70;74.30;;;;;;5057350;28;20366;-80
2021/06/13 08:19:40;;;;;;;10.27;3.47;;;16.80;73.90;;;;;;5041422;28;20024;-81
2021/06/13 08:22:06;;;;;;;11.05;3.08;;;16.80;73.10;;;;;;5056595;28;20036;-81
2021/06/13 08:24:33;;;;;;;7.75;3.17;;;16.90;72.50;;;;;;5036685;28;20383;-81
2021/06/13 08:26:58;;;;;;;10.95;3.10;;;16.90;72.20;;;;;;5041098;28;20040;-80
2021/06/13 08:29:25;;;;;;;9.38;3.38;;;16.90;71.80;;;;;;5040874;28;20481;-81
2021/06/13 08:31:52;;;;;;;9.85;3.42;;;17.00;71.40;;;;;;5057837;28;20022;-80
2021/06/13 08:34:17;;;;;;;8.70;3.05;;;17.00;71.50;;;;;;5040758;28;20028;-81
2021/06/13 08:36:43;;;;;;;8.68;2.85;;;17.00;71.50;;;;;;5040723;28;20021;-81
2021/06/13 08:39:10;;;;;;;9.73;3.33;;;17.10;71.30;;;;;;5041186;28;20017;-81
2021/06/13 08:41:36;;;;;;;11.82;3.17;;;17.10;71.00;;;;;;5059160;28;20049;-81
2021/06/13 08:44:02;;;;;;;9.95;3.13;;;17.10;70.80;;;;;;5055682;28;20031;-80
2021/06/13 08:46:29;;;;;;;16.05;4.40;;;17.20;70.30;;;;;;5036771;28;20034;-81
2021/06/13 08:48:54;;;;;;;10.25;3.47;;;17.10;69.80;;;;;;5032459;28;20036;-81
2021/06/13 08:51:21;;;;;;;7.88;2.80;;;17.10;69.50;;;;;;5048316;28;20112;-81
2021/06/13 08:53:47;;;;;;;10.95;3.25;;;17.20;69.30;;;;;;5052788;28;20036;-81
2021/06/13 08:56:14;;;;;;;9.88;3.05;;;17.30;69.20;;;;;;5057742;28;20021;-81
2021/06/13 08:58:41;;;;;;;9.55;3.15;;;17.40;69.20;;;;;;5055332;28;20116;-81
2021/06/13 09:01:09;;;;;;;10.23;3.78;;;17.40;68.60;;;;;;5045595;28;20103;-81
2021/06/13 09:03:35;;;;;;;12.30;3.30;;;17.50;68.10;;;;;;5051993;28;20044;-81
2021/06/13 09:06:00;;;;;;;7.75;3.13;;;17.60;67.80;;;;;;5037928;28;20421;-80
2021/06/13 09:08:40;;;;;;;10.25;3.45;;;17.70;67.80;;;;;;5052235;28;20503;-81
2021/06/13 09:11:09;;;;;;;12.48;3.15;;;17.70;67.40;;;;;;5048517;28;20101;-83
2021/06/13 09:13:37;;;;;;;9.95;3.47;;;17.80;67.50;;;;;;5055296;28;20474;-83
2021/06/13 09:16:08;;;;;;;9.85;2.97;;;17.80;67.30;;;;;;5061067;28;20032;-82
2021/06/13 09:18:43;;;;;;;10.00;3.63;;;18.00;67.20;;;;;;5063216;28;20017;-81
2021/06/13 09:21:25;;;;;;;10.77;4.22;;;18.10;66.90;;;;;;5045783;28;20033;-80
2021/06/13 09:23:51;;;;;;;10.50;3.92;;;18.20;66.50;;;;;;5055562;28;20043;-81
2021/06/13 09:26:18;;;;;;;10.82;3.42;;;18.20;66.50;;;;;;5051999;28;20026;-81
2021/06/13 09:28:49;;;;;;;12.32;4.10;;;18.20;65.90;;;;;;5054042;28;20021;-81
2021/06/13 09:31:25;;;;;;;8.40;3.05;;;18.20;65.30;;;;;;5051261;28;20045;-81
2021/06/13 09:33:57;;;;;;;9.98;3.40;;;18.10;65.50;;;;;;5054404;28;20021;-82
2021/06/13 09:36:25;;;;;;;8.10;3.80;;;18.10;65.30;;;;;;5050672;28;20020;-83
2021/06/13 09:38:59;;;;;;;11.48;3.42;;;18.20;65.30;;;;;;5033779;28;20040;-81
2021/06/13 09:41:25;;;;;;;10.25;3.28;;;18.20;64.90;;;;;;5038025;28;20056;-82
2021/06/13 09:44:02;;;;;;;10.45;3.10;;;18.30;64.00;;;;;;5035588;28;20054;-81
2021/06/13 09:46:30;;;;;;;7.68;2.63;;;18.40;64.10;;;;;;5033406;28;20030;-82
2021/06/13 09:49:08;;;;;;;8.35;3.13;;;18.50;63.90;;;;;;5034477;28;20038;-82
2021/06/13 09:51:36;;;;;;;9.13;3.33;;;18.50;63.70;;;;;;5033952;28;20029;-82
2021/06/13 09:54:05;;;;;;;8.60;3.28;;;18.60;63.60;;;;;;5033527;28;20025;-82
2021/06/13 09:56:40;;;;;;;8.65;3.47;;;18.70;63.60;;;;;;5018339;28;20112;-80
2021/06/13 09:59:26;;;;;;;12.23;3.58;;;18.80;63.30;;;;;;5048665;28;20021;-83
2021/06/13 10:01:57;;;;;;;10.60;3.00;;;18.90;62.20;;;;;;5052240;28;20032;-81
2021/06/13 10:04:24;;;;;;;10.50;3.25;;;18.90;61.50;;;;;;5032960;28;20029;-82
2021/06/13 10:06:51;;;;;;;8.30;2.92;;;18.90;61.50;;;;;;5033152;28;20078;-81
2021/06/13 10:09:20;;;;;;;9.02;2.88;;;19.00;61.30;;;;;;5033718;28;20440;-82
2021/06/13 10:11:48;;;;;;;13.55;3.35;;;19.10;61.10;;;;;;5032630;28;20477;-82
2021/06/13 10:14:17;;;;;;;12.00;3.17;;;19.20;60.60;;;;;;5043853;28;20376;-82
2021/06/13 10:16:47;;;;;;;8.32;2.67;;;19.20;60.60;;;;;;5060580;28;20025;-82
2021/06/13 10:19:19;;;;;;;18.40;4.40;;;19.30;60.00;;;;;;5052733;28;20029;-81
2021/06/13 10:21:47;;;;;;;9.57;3.05;;;19.40;59.90;;;;;;5052564;28;20032;-81
2021/06/13 10:24:37;;;;;;;6.45;2.30;;;19.40;59.30;;;;;;5041328;28;20028;-81
2021/06/13 10:27:07;;;;;;;11.10;3.38;;;19.50;59.30;;;;;;5032712;28;20103;-82
2021/06/13 10:29:35;;;;;;;5.63;2.50;;;19.60;58.60;;;;;;5034131;28;20470;-81
2021/06/13 10:32:03;;;;;;;14.77;2.90;;;19.80;58.40;;;;;;5046569;28;20125;-80
2021/06/13 10:34:32;;;;;;;7.22;3.05;;;19.90;58.00;;;;;;5052615;28;20439;-82
2021/06/13 10:37:02;;;;;;;8.02;2.83;;;20.00;57.60;;;;;;5032726;28;20112;-82
2021/06/13 10:39:33;;;;;;;9.48;3.53;;;20.30;57.60;;;;;;5033085;28;20021;-82
2021/06/13 10:42:01;;;;;;;8.57;2.65;;;20.50;56.90;;;;;;5039565;28;20099;-81
2021/06/13 10:44:29;;;;;;;8.32;2.55;;;20.80;56.50;;;;;;5046505;28;20060;-82
2021/06/13 10:47:11;;;;;;;9.15;2.65;;;21.10;55.90;;;;;;5066920;28;20037;-81
2021/06/13 10:49:39;;;;;;;8.75;3.03;;;21.40;55.40;;;;;;5050608;28;20036;-82
2021/06/13 10:52:12;;;;;;;9.18;2.72;;;21.70;54.90;;;;;;5046637;28;20017;-82
2021/06/13 10:54:40;;;;;;;9.73;3.17;;;22.10;53.80;;;;;;5032530;28;20385;-82
2021/06/13 10:57:09;;;;;;;8.77;2.47;;;22.50;53.70;;;;;;5038238;28;20020;-83
2021/06/13 10:59:38;;;;;;;10.73;3.40;;;22.90;53.70;;;;;;5052395;28;20025;-86
2021/06/13 11:02:10;;;;;;;8.00;2.95;;;23.30;52.10;;;;;;5045368;28;20033;-83
2021/06/13 11:04:47;;;;;;;6.43;2.65;;;23.70;52.00;;;;;;5032750;28;21881;-83
2021/06/13 11:07:29;;;;;;;6.28;2.00;;;24.00;51.60;;;;;;5046859;28;20051;-84
2021/06/13 11:10:08;;;;;;;7.38;2.45;;;24.20;50.80;;;;;;5051286;28;20032;-82
2021/06/13 11:12:56;;;;;;;8.90;2.63;;;24.40;50.20;;;;;;5052882;28;20025;-83
2021/06/13 11:15:22;;;;;;;9.55;2.45;;;24.50;49.60;;;;;;5052479;28;20048;-81
2021/06/13 11:17:52;;;;;;;7.25;2.60;;;24.60;49.70;;;;;;5051726;28;20056;-82
2021/06/13 11:23:00;;;;;;;5.45;2.10;;;24.90;48.10;;;;;;5049553;28;20032;-82
2021/06/13 11:25:29;;;;;;;8.88;2.90;;;24.90;48.20;;;;;;5031572;28;20056;-82
2021/06/13 11:28:22;;;;;;;7.38;2.45;;;25.00;47.80;;;;;;5031645;28;20537;-82
2021/06/13 11:30:55;;;;;;;7.45;2.53;;;25.10;46.80;;;;;;5032061;28;20405;-84
2021/06/13 11:33:39;;;;;;;7.32;2.58;;;25.30;47.30;;;;;;5031875;28;20108;-84
2021/06/13 11:36:21;;;;;;;9.65;2.80;;;25.40;46.80;;;;;;5032169;28;20036;-83
2021/06/13 11:39:13;;;;;;;9.15;2.40;;;25.70;46.70;;;;;;5039053;28;20026;-83
2021/06/13 11:41:40;;;;;;;6.03;2.00;;;25.80;46.20;;;;;;5053533;28;20376;-83
2021/06/13 11:44:08;;;;;;;9.85;2.22;;;26.00;46.00;;;;;;5052344;28;20035;-84
2021/06/13 11:46:35;;;;;;;7.93;2.97;;;26.30;45.90;;;;;;5053567;28;20033;-82
2021/06/13 11:49:04;;;;;;;5.28;1.95;;;26.50;45.60;;;;;;5055137;28;20029;-82
2021/06/13 11:51:30;;;;;;;8.45;2.65;;;26.60;45.10;;;;;;5057699;28;20112;-82
2021/06/13 11:53:59;;;;;;;5.65;2.28;;;26.70;44.70;;;;;;5053887;28;20063;-82
2021/06/13 11:56:39;;;;;;;6.90;2.13;;;26.80;44.40;;;;;;5055615;28;20013;-82
2021/06/13 11:59:15;;;;;;;6.47;2.33;;;27.00;43.70;;;;;;5053309;28;20025;-82
2021/06/13 12:01:46;;;;;;;6.45;2.42;;;27.10;43.10;;;;;;5051293;28;20111;-82
2021/06/13 12:04:14;;;;;;;5.32;2.15;;;27.20;43.40;;;;;;5052831;28;20025;-81
2021/06/13 12:06:41;;;;;;;5.55;2.22;;;27.30;42.90;;;;;;5051593;28;20032;-82
2021/06/13 12:09:09;;;;;;;4.72;2.00;;;27.50;42.50;;;;;;5052452;28;20465;-82
2021/06/13 12:11:40;;;;;;;5.63;2.03;;;27.60;42.10;;;;;;5052052;28;20052;-82
2021/06/13 12:14:43;;;;;;;8.05;2.30;;;27.90;41.70;;;;;;5050796;28;20017;-82
2021/06/13 12:17:14;;;;;;;5.10;2.20;;;28.00;41.00;;;;;;5050913;28;20067;-82
2021/06/13 12:19:47;;;;;;;5.70;2.47;;;28.20;41.50;;;;;;5051173;28;20457;-82
2021/06/13 12:22:15;;;;;;;8.70;2.50;;;28.40;41.20;;;;;;5051171;28;20025;-83
2021/06/13 12:27:22;;;;;;;6.65;2.22;;;28.70;40.60;;;;;;5052733;28;20494;-82
2021/06/13 12:29:55;;;;;;;7.85;2.63;;;28.90;40.00;;;;;;5052704;28;20013;-82
2021/06/13 12:32:21;;;;;;;;;;;29.10;39.80;;;;;;5050486;28;20108;-83
2021/06/13 12:34:56;;;;;;;6.10;2.33;;;29.20;39.90;;;;;;5051108;28;19967;-82
2021/06/13 12:37:25;;;;;;;7.07;2.08;;;29.40;40.20;;;;;;5054488;28;20123;-82
2021/06/13 12:39:59;;;;;;;5.90;1.98;;;29.60;39.40;;;;;;5054862;28;20043;-82
2021/06/13 12:42:27;;;;;;;7.03;2.35;;;29.80;38.40;;;;;;5055263;28;20068;-82
2021/06/13 12:45:09;;;;;;;5.65;2.17;;;29.90;38.20;;;;;;5037729;28;20087;-83
2021/06/13 12:47:35;;;;;;;4.83;1.77;;;30.20;37.70;;;;;;5055023;28;20033;-82
2021/06/13 12:50:01;;;;;;;5.25;2.10;;;30.30;37.60;;;;;;5038046;28;20481;-82
2021/06/13 12:52:27;;;;;;;8.82;2.35;;;30.50;37.40;;;;;;5054969;28;20048;-82
2021/06/13 12:55:05;;;;;;;8.15;2.28;;;30.60;37.10;;;;;;5055117;28;20033;-82
2021/06/13 12:57:32;;;;;;;6.40;1.88;;;30.80;36.60;;;;;;5054372;28;20391;-82